createdAt,value
2023-04-08T00:01:09.264Z,66.23
2023-04-08T00:03:36.992Z,66.13
2023-04-08T00:06:04.922Z,66.05
2023-04-08T00:08:32.822Z,65.54
2023-04-08T00:11:00.427Z,65.58
2023-04-08T00:13:27.954Z,66.14
2023-04-08T00:15:56.766Z,66.61
2023-04-08T00:18:24.266Z,66.52
2023-04-08T00:20:51.811Z,67.83
2023-04-08T00:23:21.279Z,68.13
2023-04-08T00:25:48.760Z,68.86
2023-04-08T00:28:16.498Z,69.10
2023-04-08T00:30:44.082Z,69.46
2023-04-08T00:33:13.015Z,69.85
2023-04-08T00:35:40.562Z,68.86
2023-04-08T00:38:08.700Z,70.21
2023-04-08T00:40:36.307Z,70.81
2023-04-08T00:43:03.837Z,70.67
2023-04-08T00:45:31.385Z,70.69
2023-04-08T00:47:58.941Z,71.79
2023-04-08T00:50:27.840Z,73.40
2023-04-08T00:52:55.360Z,73.08
2023-04-08T00:55:22.985Z,73.07
2023-04-08T00:57:50.553Z,75.26
2023-04-08T01:00:18.158Z,73.36
2023-04-08T01:02:49.084Z,74.85
2023-04-08T01:05:22.032Z,75.05
2023-04-08T01:07:51.586Z,74.64
2023-04-08T01:10:21.431Z,75.29
2023-04-08T01:13:00.685Z,76.53
2023-04-08T01:15:30.070Z,76.16
2023-04-08T01:18:00.527Z,76.68
2023-04-08T01:20:28.894Z,76.17
2023-04-08T01:23:06.845Z,77.16
2023-04-08T01:25:36.732Z,78.26
2023-04-08T01:28:08.101Z,77.82
2023-04-08T01:30:36.816Z,78.44
2023-04-08T01:33:05.085Z,78.52
2023-04-08T01:35:33.102Z,80.05
2023-04-08T01:38:01.495Z,79.27
2023-04-08T01:40:29.106Z,79.63
2023-04-08T01:42:57.973Z,79.41
2023-04-08T01:45:27.748Z,80.13
2023-04-08T01:47:56.413Z,80.85
2023-04-08T01:50:24.981Z,79.41
2023-04-08T01:52:53.773Z,80.19
2023-04-08T01:55:21.886Z,81.84
2023-04-08T01:57:51.526Z,81.70
2023-04-08T02:00:21.003Z,81.90
2023-04-08T02:02:50.846Z,81.42
2023-04-08T02:05:20.113Z,81.15
2023-04-08T02:07:48.388Z,82.33
2023-04-08T02:10:16.111Z,82.05
2023-04-08T02:12:44.628Z,82.11
2023-04-08T02:15:12.702Z,82.37
2023-04-08T02:17:45.477Z,82.42
2023-04-08T02:20:17.768Z,83.42
2023-04-08T02:22:56.349Z,82.97
2023-04-08T02:25:24.399Z,83.93
2023-04-08T02:27:53.356Z,83.80
2023-04-08T02:30:21.487Z,84.24
2023-04-08T02:32:49.735Z,84.53
2023-04-08T02:35:19.602Z,85.42
2023-04-08T02:37:48.636Z,84.59
2023-04-08T02:40:26.947Z,84.59
2023-04-08T02:42:54.640Z,85.66
2023-04-08T02:45:22.486Z,85.23
2023-04-08T02:47:51.000Z,85.51
2023-04-08T02:50:19.836Z,85.28
2023-04-08T02:52:47.368Z,85.09
2023-04-08T02:55:14.966Z,85.68
2023-04-08T02:57:43.376Z,85.11
2023-04-08T03:00:11.947Z,84.63
2023-04-08T03:02:39.595Z,84.70
2023-04-08T03:05:08.051Z,84.58
2023-04-08T03:07:36.904Z,85.66
2023-04-08T03:10:04.805Z,84.99
2023-04-08T03:12:33.000Z,84.81
2023-04-08T03:15:01.059Z,85.98
2023-04-08T03:17:28.740Z,86.94
2023-04-08T03:19:56.257Z,85.82
2023-04-08T03:22:24.375Z,86.07
2023-04-08T03:24:53.234Z,86.08
2023-04-08T03:27:20.711Z,85.81
2023-04-08T03:29:48.419Z,86.11
2023-04-08T03:32:16.106Z,87.36
2023-04-08T03:34:43.667Z,86.27
2023-04-08T03:37:11.327Z,86.20
2023-04-08T03:39:39.251Z,86.00
2023-04-08T03:42:08.073Z,86.78
2023-04-08T03:44:35.557Z,86.57
2023-04-08T03:47:03.061Z,86.73
2023-04-08T03:49:30.550Z,87.53
2023-04-08T03:51:58.019Z,87.13
2023-04-08T03:54:25.618Z,87.54
2023-04-08T03:56:53.093Z,87.00
2023-04-08T03:59:21.952Z,87.61
2023-04-08T04:01:51.278Z,87.04
2023-04-08T04:04:19.060Z,86.54
2023-04-08T04:06:46.815Z,87.19
2023-04-08T04:09:15.192Z,86.95
2023-04-08T04:11:42.667Z,87.42
2023-04-08T04:14:10.179Z,86.89
2023-04-08T04:16:39.031Z,87.09
2023-04-08T04:19:06.642Z,87.31
2023-04-08T04:21:34.140Z,88.01
2023-04-08T04:24:01.665Z,87.90
2023-04-08T04:26:29.171Z,88.13
2023-04-08T04:28:56.717Z,88.76
2023-04-08T04:31:26.430Z,88.45
2023-04-08T04:33:55.403Z,88.88
2023-04-08T04:36:22.932Z,88.60
2023-04-08T04:38:50.813Z,88.62
2023-04-08T04:41:18.542Z,89.27
2023-04-08T04:43:46.216Z,88.50
2023-04-08T04:46:13.728Z,88.83
2023-04-08T04:48:41.553Z,88.83
2023-04-08T04:51:10.464Z,89.17
2023-04-08T04:53:37.918Z,89.32
2023-04-08T04:56:05.528Z,89.64
2023-04-08T04:58:33.045Z,89.38
2023-04-08T05:01:00.500Z,89.42
2023-04-08T05:03:28.046Z,89.49
2023-04-08T05:05:55.890Z,90.19
2023-04-08T05:08:27.256Z,89.87
2023-04-08T05:10:56.100Z,90.16
2023-04-08T05:13:23.673Z,90.11
2023-04-08T05:15:51.277Z,90.55
2023-04-08T05:18:18.827Z,89.69
2023-04-08T05:20:46.806Z,91.25
2023-04-08T05:23:14.272Z,92.67
2023-04-08T05:25:43.091Z,91.78
2023-04-08T05:28:10.612Z,90.82
2023-04-08T05:30:38.166Z,91.08
2023-04-08T05:33:05.682Z,90.86
2023-04-08T05:35:33.355Z,91.16
2023-04-08T05:38:00.853Z,90.88
2023-04-08T05:40:28.337Z,91.24
2023-04-08T05:42:57.145Z,90.70
2023-04-08T05:45:24.662Z,90.59
2023-04-08T05:47:52.147Z,90.50
2023-04-08T05:50:19.692Z,90.21
2023-04-08T05:52:47.382Z,90.02
2023-04-08T05:55:15.554Z,89.52
2023-04-08T05:57:43.034Z,89.72
2023-04-08T06:00:12.508Z,89.87
2023-04-08T06:02:40.120Z,89.28
2023-04-08T06:05:08.213Z,89.60
2023-04-08T06:07:35.858Z,89.69
2023-04-08T06:10:03.511Z,90.73
2023-04-08T06:12:31.189Z,89.88
2023-04-08T06:14:58.756Z,90.18
2023-04-08T06:17:27.634Z,90.66
2023-04-08T06:19:55.215Z,90.10
2023-04-08T06:22:22.722Z,90.51
2023-04-08T06:24:50.218Z,91.37
2023-04-08T06:27:18.264Z,92.07
2023-04-08T06:29:45.749Z,92.60
2023-04-08T06:32:13.252Z,92.11
2023-04-08T06:34:42.220Z,91.85
2023-04-08T06:37:09.826Z,92.65
2023-04-08T06:39:37.295Z,92.39
2023-04-08T06:42:04.834Z,92.76
2023-04-08T06:44:45.177Z,92.43
2023-04-08T06:47:12.650Z,92.43
2023-04-08T06:49:40.109Z,92.83
2023-04-08T06:52:08.901Z,92.72
2023-04-08T06:54:36.417Z,92.54
2023-04-08T06:57:04.186Z,92.78
2023-04-08T06:59:31.725Z,92.03
2023-04-08T07:01:59.316Z,92.92
2023-04-08T07:04:27.004Z,92.66
2023-04-08T07:06:54.839Z,92.54
2023-04-08T07:09:23.677Z,92.56
2023-04-08T07:11:51.287Z,92.66
2023-04-08T07:14:19.597Z,92.35
2023-04-08T07:16:47.171Z,91.77
2023-04-08T07:19:14.695Z,92.90
2023-04-08T07:21:42.390Z,92.35
2023-04-08T07:24:09.892Z,91.59
2023-04-08T07:26:39.289Z,90.96
2023-04-08T07:29:06.783Z,91.87
2023-04-08T07:31:34.370Z,92.14
2023-04-08T07:34:01.906Z,93.30
2023-04-08T07:36:29.423Z,93.10
2023-04-08T07:38:56.909Z,92.90
2023-04-08T07:41:24.413Z,91.89
2023-04-08T07:43:53.204Z,91.50
2023-04-08T07:46:21.160Z,91.94
2023-04-08T07:48:49.053Z,91.72
2023-04-08T07:51:16.713Z,90.85
2023-04-08T07:53:47.928Z,91.81
2023-04-08T07:56:18.202Z,91.05
2023-04-08T07:58:45.921Z,91.39
2023-04-08T08:01:20.097Z,91.62
2023-04-08T08:03:48.511Z,91.03
2023-04-08T08:06:16.432Z,91.02
2023-04-08T08:08:44.107Z,91.63
2023-04-08T08:11:11.763Z,92.22
2023-04-08T08:13:39.264Z,91.81
2023-04-08T08:16:09.191Z,91.97
2023-04-08T08:18:40.148Z,93.00
2023-04-08T08:21:08.548Z,92.52
2023-04-08T08:23:36.191Z,92.56
2023-04-08T08:26:04.944Z,92.92
2023-04-08T08:28:32.454Z,92.58
2023-04-08T08:31:00.359Z,93.12
2023-04-08T08:33:27.869Z,93.12
2023-04-08T08:35:58.144Z,92.71
2023-04-08T08:38:26.094Z,92.04
2023-04-08T08:40:56.367Z,91.39
2023-04-08T08:43:24.054Z,91.83
2023-04-08T08:45:51.605Z,92.40
2023-04-08T08:48:19.131Z,93.18
2023-04-08T08:50:46.720Z,93.34
2023-04-08T08:53:16.151Z,92.54
2023-04-08T08:56:13.660Z,92.23
2023-04-08T08:58:31.657Z,93.03
2023-04-08T09:01:00.974Z,92.27
2023-04-08T09:03:29.697Z,93.02
2023-04-08T09:05:58.846Z,93.50
2023-04-08T09:08:31.888Z,93.23
2023-04-08T09:11:12.459Z,92.50
2023-04-08T09:13:40.311Z,93.03
2023-04-08T09:16:09.574Z,93.00
2023-04-08T09:18:37.833Z,93.27
2023-04-08T09:21:06.428Z,93.14
2023-04-08T09:23:43.020Z,92.84
2023-04-08T09:26:11.887Z,93.43
2023-04-08T09:28:40.695Z,93.47
2023-04-08T09:31:21.827Z,93.36
2023-04-08T09:33:50.390Z,93.29
2023-04-08T09:36:18.378Z,93.77
2023-04-08T09:38:49.219Z,94.13
2023-04-08T09:41:17.891Z,94.50
2023-04-08T09:43:49.589Z,94.44
2023-04-08T09:46:19.257Z,93.24
2023-04-08T09:48:52.300Z,93.44
2023-04-08T09:51:22.508Z,93.74
2023-04-08T09:53:57.340Z,93.77
2023-04-08T09:56:25.892Z,94.05
2023-04-08T09:58:56.881Z,93.13
2023-04-08T10:01:29.836Z,93.48
2023-04-08T10:03:58.257Z,93.72
2023-04-08T10:06:29.507Z,93.51
2023-04-08T10:08:59.100Z,93.79
2023-04-08T10:11:26.600Z,94.39
2023-04-08T10:13:54.193Z,94.30
2023-04-08T10:16:24.412Z,94.08
2023-04-08T10:18:55.619Z,92.87
2023-04-08T10:21:33.135Z,92.95
2023-04-08T10:24:06.965Z,93.29
2023-04-08T10:26:36.710Z,93.33
2023-04-08T10:29:32.638Z,93.61
2023-04-08T10:32:01.260Z,92.63
2023-04-08T10:34:28.982Z,93.19
2023-04-08T10:36:58.969Z,93.19
2023-04-08T10:39:28.362Z,93.30
2023-04-08T10:41:56.338Z,93.20
2023-04-08T10:44:26.252Z,94.08
2023-04-08T10:46:54.703Z,93.31
2023-04-08T10:49:22.937Z,93.99
2023-04-08T10:51:50.516Z,94.09
2023-04-08T10:54:19.269Z,93.86
2023-04-08T10:56:49.509Z,93.89
2023-04-08T10:59:20.068Z,92.76
2023-04-08T11:01:48.076Z,93.40
2023-04-08T11:04:17.991Z,91.84
2023-04-08T11:06:46.875Z,92.38
2023-04-08T11:09:15.324Z,94.26
2023-04-08T11:11:43.414Z,92.78
2023-04-08T11:14:12.500Z,92.24
2023-04-08T11:16:40.697Z,92.24
2023-04-08T11:19:08.937Z,91.34
2023-04-08T11:21:37.626Z,90.24
2023-04-08T11:24:11.900Z,90.09
2023-04-08T11:26:39.662Z,91.29
2023-04-08T11:29:08.903Z,91.09
2023-04-08T11:31:38.181Z,89.27
2023-04-08T11:34:06.261Z,88.26
2023-04-08T11:36:35.284Z,87.17
2023-04-08T11:39:08.001Z,86.14
2023-04-08T11:41:40.535Z,85.86
2023-04-08T11:44:08.752Z,85.12
2023-04-08T11:46:38.106Z,85.54
2023-04-08T11:49:07.696Z,86.49
2023-04-08T11:51:36.207Z,86.70
2023-04-08T11:54:06.168Z,84.59
2023-04-08T11:56:45.633Z,84.21
2023-04-08T11:59:13.126Z,83.67
2023-04-08T12:01:41.990Z,84.96
2023-04-08T12:04:10.680Z,84.64
2023-04-08T12:06:38.375Z,85.85
2023-04-08T12:09:06.404Z,85.39
2023-04-08T12:11:34.787Z,84.38
2023-04-08T12:14:02.286Z,84.72
2023-04-08T12:16:30.054Z,84.47
2023-04-08T12:18:58.905Z,84.34
2023-04-08T12:21:27.850Z,84.74
2023-04-08T12:23:55.347Z,85.10
2023-04-08T12:26:22.853Z,84.05
2023-04-08T12:28:50.422Z,84.41
2023-04-08T12:31:17.931Z,84.34
2023-04-08T12:33:45.481Z,83.05
2023-04-08T12:36:14.291Z,83.59
2023-04-08T12:38:42.016Z,83.15
2023-04-08T12:41:09.583Z,84.51
2023-04-08T12:43:37.661Z,84.25
2023-04-08T12:46:05.210Z,84.05
2023-04-08T12:48:33.172Z,84.43
2023-04-08T12:51:00.836Z,84.25
2023-04-08T12:53:29.672Z,83.89
2023-04-08T12:55:57.587Z,84.51
2023-04-08T12:58:25.634Z,84.31
2023-04-08T13:00:53.331Z,84.60
2023-04-08T13:03:20.887Z,84.13
2023-04-08T13:05:48.551Z,84.28
2023-04-08T13:08:16.722Z,84.22
2023-04-08T13:10:45.607Z,84.14
2023-04-08T13:13:14.224Z,85.07
2023-04-08T13:15:41.976Z,84.40
2023-04-08T13:18:09.515Z,83.71
2023-04-08T13:20:37.097Z,83.89
2023-04-08T13:23:04.702Z,84.64
2023-04-08T13:25:32.229Z,83.40
2023-04-08T13:28:01.133Z,84.44
2023-04-08T13:30:28.631Z,84.33
2023-04-08T13:32:56.177Z,83.35
2023-04-08T13:35:23.800Z,83.39
2023-04-08T13:37:51.314Z,83.48
2023-04-08T13:40:18.800Z,83.10
2023-04-08T13:42:46.664Z,83.30
2023-04-08T13:45:15.654Z,83.29
2023-04-08T13:47:43.250Z,82.59
2023-04-08T13:50:11.216Z,81.72
2023-04-08T13:52:38.701Z,81.96
2023-04-08T13:55:07.258Z,82.58
2023-04-08T13:57:34.824Z,82.47
2023-04-08T14:00:02.330Z,82.37
2023-04-08T14:02:32.033Z,80.88
2023-04-08T14:04:59.583Z,80.71
2023-04-08T14:07:27.114Z,81.56
2023-04-08T14:09:54.905Z,80.97
2023-04-08T14:12:22.478Z,80.90
2023-04-08T14:14:49.973Z,80.39
2023-04-08T14:17:17.555Z,80.51
2023-04-08T14:19:46.408Z,79.75
2023-04-08T14:22:14.971Z,79.56
2023-04-08T14:24:42.536Z,75.90
2023-04-08T14:27:10.265Z,77.03
2023-04-08T14:29:37.823Z,76.75
2023-04-08T14:32:05.657Z,75.64
2023-04-08T14:34:33.191Z,75.27
2023-04-08T14:37:02.022Z,75.16
2023-04-08T14:39:29.535Z,74.81
2023-04-08T14:41:57.371Z,74.29
2023-04-08T14:44:24.911Z,73.97
2023-04-08T14:46:52.570Z,73.83
2023-04-08T14:49:23.316Z,73.96
2023-04-08T14:51:52.741Z,73.80
2023-04-08T14:54:22.254Z,74.14
2023-04-08T14:56:49.750Z,74.54
2023-04-08T14:59:17.279Z,73.36
2023-04-08T15:01:45.068Z,74.03
2023-04-08T15:04:12.710Z,73.85
2023-04-08T15:06:40.463Z,73.24
2023-04-08T15:09:08.060Z,73.82
2023-04-08T15:11:37.065Z,74.00
2023-04-08T15:14:04.580Z,74.32
2023-04-08T15:16:33.004Z,74.67
2023-04-08T15:19:00.694Z,74.38
2023-04-08T15:21:28.219Z,74.67
2023-04-08T15:23:55.751Z,74.86
2023-04-08T15:26:24.406Z,74.65
2023-04-08T15:28:55.163Z,74.36
2023-04-08T15:31:22.776Z,74.32
2023-04-08T15:33:50.566Z,74.09
2023-04-08T15:36:19.827Z,74.81
2023-04-08T15:38:47.911Z,74.67
2023-04-08T15:41:19.190Z,74.53
2023-04-08T15:43:47.032Z,74.54
2023-04-08T15:46:19.607Z,74.79
2023-04-08T15:48:47.359Z,75.14
2023-04-08T15:51:14.879Z,75.17
2023-04-08T15:53:42.666Z,75.02
2023-04-08T15:56:13.475Z,74.96
2023-04-08T15:58:41.099Z,75.04
2023-04-08T16:01:08.926Z,74.97
2023-04-08T16:03:38.032Z,75.64
2023-04-08T16:06:08.655Z,75.68
2023-04-08T16:08:37.298Z,75.79
2023-04-08T16:11:06.222Z,76.12
2023-04-08T16:13:34.153Z,76.29
2023-04-08T16:16:02.660Z,76.15
2023-04-08T16:18:30.420Z,76.70
2023-04-08T16:20:59.276Z,76.90
2023-04-08T16:23:27.086Z,77.02
2023-04-08T16:25:54.578Z,77.01
2023-04-08T16:28:22.072Z,76.85
2023-04-08T16:30:49.580Z,76.71
2023-04-08T16:33:17.123Z,77.11
2023-04-08T16:35:44.788Z,77.00
2023-04-08T16:38:14.847Z,77.29
2023-04-08T16:40:42.524Z,77.35
2023-04-08T16:43:10.088Z,77.58
2023-04-08T16:45:37.879Z,77.56
2023-04-08T16:48:05.478Z,77.56
2023-04-08T16:50:33.018Z,78.33
2023-04-08T16:53:00.606Z,78.13
2023-04-08T16:55:29.437Z,78.37
2023-04-08T16:57:57.804Z,78.34
2023-04-08T17:00:25.356Z,78.42
2023-04-08T17:02:55.507Z,78.51
2023-04-08T17:05:23.248Z,78.94
2023-04-08T17:07:50.792Z,78.82
2023-04-08T17:10:18.887Z,79.06
2023-04-08T17:12:47.676Z,78.97
2023-04-08T17:15:15.387Z,79.10
2023-04-08T17:17:42.981Z,78.73
2023-04-08T17:20:11.886Z,78.78
2023-04-08T17:22:39.401Z,78.76
2023-04-08T17:25:07.875Z,78.76
2023-04-08T17:27:35.383Z,78.87
2023-04-08T17:30:04.824Z,78.89
2023-04-08T17:32:32.320Z,79.39
2023-04-08T17:34:59.893Z,79.02
2023-04-08T17:37:27.499Z,79.15
2023-04-08T17:39:55.015Z,79.33
2023-04-08T17:42:23.652Z,79.32
2023-04-08T17:44:51.139Z,79.38
2023-04-08T17:47:21.059Z,79.45
2023-04-08T17:49:48.604Z,79.51
2023-04-08T17:52:16.280Z,79.58
2023-04-08T17:54:43.963Z,79.50
2023-04-08T17:57:11.472Z,79.82
2023-04-08T17:59:38.981Z,79.62
2023-04-08T18:02:06.555Z,80.01
2023-04-08T18:04:35.392Z,80.05
2023-04-08T18:07:04.420Z,80.28
2023-04-08T18:09:32.040Z,80.40
2023-04-08T18:11:59.556Z,80.18
2023-04-08T18:14:29.135Z,80.36
2023-04-08T18:16:56.765Z,80.52
2023-04-08T18:19:26.090Z,80.75
2023-04-08T18:21:55.291Z,80.65
2023-04-08T18:24:22.850Z,80.91
2023-04-08T18:27:01.461Z,80.99
2023-04-08T18:29:31.297Z,81.46
2023-04-08T18:32:03.201Z,81.73
2023-04-08T18:34:31.953Z,81.71
2023-04-08T18:37:01.049Z,81.77
2023-04-08T18:39:28.536Z,81.98
2023-04-08T18:41:56.597Z,81.71
2023-04-08T18:44:24.318Z,81.88
2023-04-08T18:46:51.821Z,82.33
2023-04-08T18:49:19.310Z,82.41
2023-04-08T18:51:55.520Z,82.31
2023-04-08T18:54:31.501Z,82.53
2023-04-08T18:56:59.128Z,82.45
2023-04-08T18:59:28.317Z,82.48
2023-04-08T19:01:56.315Z,82.43
2023-04-08T19:04:23.893Z,82.26
2023-04-08T19:06:51.434Z,82.31
2023-04-08T19:09:19.195Z,82.58
2023-04-08T19:11:48.566Z,82.61
2023-04-08T19:14:16.054Z,82.49
2023-04-08T19:16:43.696Z,82.60
2023-04-08T19:19:11.158Z,82.70
2023-04-08T19:21:38.723Z,82.86
2023-04-08T19:24:06.619Z,83.52
2023-04-08T19:26:34.675Z,83.32
2023-04-08T19:29:03.621Z,83.24
2023-04-08T19:31:31.372Z,83.64
2023-04-08T19:33:59.008Z,83.48
2023-04-08T19:36:27.464Z,83.54
2023-04-08T19:38:54.928Z,83.40
2023-04-08T19:41:23.109Z,83.76
2023-04-08T19:43:50.761Z,83.74
2023-04-08T19:46:19.740Z,83.53
2023-04-08T19:48:47.396Z,83.50
2023-04-08T19:51:16.945Z,83.34
2023-04-08T19:53:44.598Z,83.36
2023-04-08T19:56:12.037Z,83.64
2023-04-08T19:58:39.521Z,83.62
2023-04-08T20:01:07.333Z,83.72
2023-04-08T20:03:36.399Z,83.52
2023-04-08T20:06:03.961Z,83.87
2023-04-08T20:08:31.438Z,83.70
2023-04-08T20:10:59.381Z,83.55
2023-04-08T20:13:26.855Z,83.44
2023-04-08T20:15:54.410Z,83.41
2023-04-08T20:18:22.040Z,83.76
2023-04-08T20:20:50.835Z,83.70
2023-04-08T20:23:18.366Z,83.56
2023-04-08T20:25:45.862Z,83.81
2023-04-08T20:28:13.359Z,84.40
2023-04-08T20:30:40.856Z,84.69
2023-04-08T20:33:08.373Z,84.62
2023-04-08T20:35:35.911Z,84.42
2023-04-08T20:38:05.190Z,84.74
2023-04-08T20:40:32.878Z,85.06
2023-04-08T20:43:00.569Z,84.93
2023-04-08T20:45:28.265Z,85.23
2023-04-08T20:47:55.893Z,85.11
2023-04-08T20:50:23.854Z,84.94
2023-04-08T20:52:51.641Z,84.71
2023-04-08T20:55:20.671Z,84.81
2023-04-08T20:57:48.361Z,85.31
2023-04-08T21:00:16.947Z,85.41
2023-04-08T21:02:44.883Z,85.36
2023-04-08T21:05:12.565Z,85.26
2023-04-08T21:07:44.238Z,85.71
2023-04-08T21:10:12.362Z,84.80
2023-04-08T21:12:41.207Z,85.14
2023-04-08T21:15:09.757Z,85.33
2023-04-08T21:17:37.343Z,84.87
2023-04-08T21:20:06.532Z,84.69
2023-04-08T21:22:34.073Z,84.54
2023-04-08T21:25:01.561Z,84.46
2023-04-08T21:27:29.277Z,84.95
2023-04-08T21:29:58.112Z,85.07
2023-04-08T21:32:26.491Z,85.44
2023-04-08T21:34:55.048Z,85.84
2023-04-08T21:37:23.066Z,86.08
2023-04-08T21:39:51.516Z,86.76
2023-04-08T21:42:22.527Z,87.45
2023-04-08T21:44:50.041Z,86.79
2023-04-08T21:47:18.978Z,86.91
2023-04-08T21:49:46.472Z,86.60
2023-04-08T21:52:13.973Z,86.90
2023-04-08T21:54:41.547Z,86.88
2023-04-08T21:57:09.000Z,87.44
2023-04-08T21:59:36.846Z,87.94
2023-04-08T22:02:04.636Z,87.75
2023-04-08T22:04:33.528Z,87.20
2023-04-08T22:07:01.548Z,87.29
2023-04-08T22:09:29.066Z,88.04
2023-04-08T22:11:57.197Z,87.36
2023-04-08T22:14:24.713Z,86.76
2023-04-08T22:16:52.288Z,86.37
2023-04-08T22:19:19.996Z,85.98
2023-04-08T22:21:50.164Z,87.06
2023-04-08T22:24:17.943Z,88.21
2023-04-08T22:26:45.422Z,87.88
2023-04-08T22:29:13.002Z,86.22
2023-04-08T22:31:40.705Z,84.66
2023-04-08T22:34:08.205Z,86.07
2023-04-08T22:36:35.748Z,84.70
2023-04-08T22:39:04.819Z,84.98
2023-04-08T22:41:32.296Z,86.09
2023-04-08T22:43:59.794Z,86.10
2023-04-08T22:46:27.281Z,85.85
2023-04-08T22:48:54.931Z,85.84
2023-04-08T22:51:22.447Z,85.87
2023-04-08T22:53:49.960Z,86.13
2023-04-08T22:56:18.789Z,87.54
2023-04-08T22:58:46.307Z,86.73
2023-04-08T23:01:14.995Z,87.89
2023-04-08T23:03:42.625Z,88.37
2023-04-08T23:06:10.152Z,89.07
2023-04-08T23:08:38.630Z,87.90
2023-04-08T23:11:06.414Z,87.29
2023-04-08T23:13:35.383Z,87.08
2023-04-08T23:16:03.023Z,87.13
2023-04-08T23:18:30.746Z,86.74
2023-04-08T23:20:58.596Z,86.27
2023-04-08T23:23:26.454Z,86.29
2023-04-08T23:25:55.695Z,86.88
2023-04-08T23:28:23.548Z,86.88
2023-04-08T23:30:52.383Z,87.01
2023-04-08T23:33:19.938Z,87.28
2023-04-08T23:35:47.464Z,86.73
2023-04-08T23:38:15.014Z,86.18
2023-04-08T23:40:42.488Z,86.35
2023-04-08T23:43:09.986Z,86.52
2023-04-08T23:45:37.463Z,86.36
2023-04-08T23:48:09.960Z,85.22
2023-04-08T23:50:37.729Z,85.58
2023-04-08T23:53:05.335Z,86.69
2023-04-08T23:55:32.842Z,87.49
2023-04-08T23:58:00.327Z,87.49
